Time;durP1;ratioP1;P1;durP2;ratioP2;P2;SDS_P1;SDS_P2;PMS_P1;PMS_P2;Temp;Humidity;BMP_temperature;BMP_pressure;BME280_temperature;BME280_humidity;BME280_pressure;Samples;Min_cycle;Max_cycle;Signal;HPM_P1;HPM_P2
2023/04/21 00:02:18;;;;;;;28.48;18.48;;;;;;;;;;5036869;28;20654;-71
2023/04/21 00:04:44;;;;;;;25.80;18.52;;;;;;;;;;5059453;28;20036;-71
2023/04/21 00:07:10;;;;;;;26.75;18.33;;;;;;;;;;5041743;28;20032;-69
2023/04/21 00:09:35;;;;;;;27.50;19.35;;;;;;;;;;5057359;28;20094;-70
2023/04/21 00:12:00;;;;;;;28.02;19.05;;;;;;;;;;5040032;28;20043;-70
2023/04/21 00:14:25;;;;;;;27.33;18.90;;;;;;;;;;5041373;28;20105;-70
2023/04/21 00:16:53;;;;;;;28.02;20.05;;;;;;;;;;5059379;28;20119;-71
2023/04/21 00:19:18;;;;;;;27.48;19.27;;;;;;;;;;5055035;28;20036;-70
2023/04/21 00:21:44;;;;;;;27.88;19.85;;;;;;;;;;5060276;28;20046;-70
2023/04/21 00:24:09;;;;;;;26.92;18.90;;;;;;;;;;5058702;28;20036;-70
2023/04/21 00:26:34;;;;;;;28.60;20.48;;;;;;;;;;5056665;28;20028;-73
2023/04/21 00:29:00;;;;;;;31.70;21.17;;;;;;;;;;5040021;28;20028;-71
2023/04/21 00:31:25;;;;;;;32.42;22.17;;;;;;;;;;5057226;28;20111;-70
2023/04/21 00:33:50;;;;;;;30.48;21.63;;;;;;;;;;5061174;28;20156;-71
2023/04/21 00:36:15;;;;;;;35.15;22.27;;;;;;;;;;5061195;28;20038;-70
2023/04/21 00:38:41;;;;;;;32.65;21.85;;;;;;;;;;5059899;28;20933;-70
2023/04/21 00:41:06;;;;;;;32.78;22.52;;;;;;;;;;5057240;28;20050;-70
2023/04/21 00:43:31;;;;;;;30.27;21.08;;;;;;;;;;5057052;28;20044;-70
2023/04/21 00:45:56;;;;;;;30.20;21.27;;;;;;;;;;5060276;28;20047;-70
2023/04/21 00:48:22;;;;;;;28.77;20.83;;;;;;;;;;5059451;28;20032;-70
2023/04/21 00:50:47;;;;;;;30.83;22.25;;;;;;;;;;5057943;28;20054;-70
2023/04/21 00:53:13;;;;;;;34.72;22.23;;;;;;;;;;5058909;28;20060;-70
2023/04/21 00:55:39;;;;;;;33.25;23.42;;;;;;;;;;5062957;28;20033;-72
2023/04/21 00:58:06;;;;;;;32.85;22.77;;;;;;;;;;5063493;28;20129;-72
2023/04/21 01:00:32;;;;;;;34.90;23.83;;;;;;;;;;5061127;28;20378;-72
2023/04/21 01:03:00;;;;;;;32.80;22.27;;;;;;;;;;5040967;28;20036;-72
2023/04/21 01:05:25;;;;;;;33.97;23.65;;;;;;;;;;5062673;28;20036;-72
2023/04/21 01:07:51;;;;;;;35.92;24.77;;;;;;;;;;5043924;28;20598;-70
2023/04/21 01:10:16;;;;;;;34.35;24.02;;;;;;;;;;5057473;28;20070;-71
2023/04/21 01:12:43;;;;;;;35.95;25.58;;;;;;;;;;5028990;28;20036;-69
2023/04/21 01:15:08;;;;;;;38.67;25.58;;;;;;;;;;5066030;28;20118;-69
2023/04/21 01:17:37;;;;;;;38.55;26.60;;;;;;;;;;5061250;28;20042;-70
2023/04/21 01:20:07;;;;;;;37.80;26.30;;;;;;;;;;5042451;28;20039;-70
2023/04/21 01:22:39;;;;;;;43.00;27.38;;;;;;;;;;5057476;28;20060;-68
2023/04/21 01:25:04;;;;;;;41.42;27.05;;;;;;;;;;5058512;28;20070;-70
2023/04/21 01:27:30;;;;;;;41.95;27.98;;;;;;;;;;5059085;28;20039;-71
2023/04/21 01:29:55;;;;;;;44.60;28.67;;;;;;;;;;5037738;28;20115;-71
2023/04/21 01:32:23;;;;;;;41.95;27.55;;;;;;;;;;5058833;28;20036;-70
2023/04/21 01:34:49;;;;;;;42.78;28.63;;;;;;;;;;5060140;28;20053;-71
2023/04/21 01:37:16;;;;;;;43.08;28.70;;;;;;;;;;5045323;28;20121;-71
2023/04/21 01:39:42;;;;;;;45.35;29.00;;;;;;;;;;5064215;28;20043;-71
2023/04/21 01:42:08;;;;;;;47.88;30.58;;;;;;;;;;5060332;28;20051;-71
2023/04/21 01:44:33;;;;;;;44.50;30.48;;;;;;;;;;5060005;28;20040;-71
2023/04/21 01:47:01;;;;;;;47.90;31.45;;;;;;;;;;5043844;28;20040;-72
2023/04/21 01:49:29;;;;;;;49.03;31.58;;;;;;;;;;5062582;28;20140;-72
2023/04/21 01:51:54;;;;;;;49.13;32.85;;;;;;;;;;5034540;28;20040;-73
2023/04/21 01:54:19;;;;;;;55.80;34.20;;;;;;;;;;5050600;28;20084;-74
2023/04/21 01:56:47;;;;;;;55.63;34.40;;;;;;;;;;5061298;28;20040;-75
2023/04/21 01:59:12;;;;;;;56.25;34.60;;;;;;;;;;5061496;28;20048;-75
2023/04/21 02:01:37;;;;;;;58.97;36.65;;;;;;;;;;5061647;28;22297;-74
2023/04/21 02:04:03;;;;;;;67.70;38.92;;;;;;;;;;5059232;28;20040;-74
2023/04/21 02:06:30;;;;;;;63.60;39.03;;;;;;;;;;5061356;28;20048;-74
2023/04/21 02:08:58;;;;;;;66.32;39.67;;;;;;;;;;5061784;28;20378;-74
2023/04/21 02:11:24;;;;;;;72.95;42.60;;;;;;;;;;5062916;28;20050;-74
2023/04/21 02:13:49;;;;;;;71.78;41.47;;;;;;;;;;5022734;28;20994;-75
2023/04/21 02:16:19;;;;;;;67.95;41.35;;;;;;;;;;5060778;28;20089;-74
2023/04/21 02:18:47;;;;;;;68.82;40.60;;;;;;;;;;5060864;28;20058;-73
2023/04/21 02:21:13;;;;;;;69.72;41.13;;;;;;;;;;5062948;28;20925;-74
2023/04/21 02:23:38;;;;;;;71.25;42.33;;;;;;;;;;5060537;28;20044;-75
2023/04/21 02:26:03;;;;;;;72.50;43.42;;;;;;;;;;5043497;28;20042;-74
2023/04/21 02:28:30;;;;;;;73.00;44.08;;;;;;;;;;5039708;28;20044;-75
2023/04/21 02:30:55;;;;;;;77.15;44.97;;;;;;;;;;5036262;28;20179;-74
2023/04/21 02:33:21;;;;;;;81.15;46.38;;;;;;;;;;5063616;28;20036;-74
2023/04/21 02:35:46;;;;;;;83.80;46.47;;;;;;;;;;5050045;28;20103;-74
2023/04/21 02:38:11;;;;;;;81.72;46.58;;;;;;;;;;5058195;28;20029;-75
2023/04/21 02:40:37;;;;;;;83.35;46.97;;;;;;;;;;5044394;28;20729;-73
2023/04/21 02:43:03;;;;;;;79.13;46.65;;;;;;;;;;5060620;28;20036;-74
2023/04/21 02:45:29;;;;;;;80.28;45.55;;;;;;;;;;5043290;28;20047;-74
2023/04/21 02:47:54;;;;;;;69.95;39.85;;;;;;;;;;5039759;28;20059;-73
2023/04/21 02:50:21;;;;;;;69.47;39.63;;;;;;;;;;5027600;28;20032;-73
2023/04/21 02:52:47;;;;;;;67.28;39.30;;;;;;;;;;5045305;28;20081;-73
2023/04/21 02:55:12;;;;;;;78.53;40.42;;;;;;;;;;5059980;28;20048;-74
2023/04/21 02:57:37;;;;;;;68.47;40.45;;;;;;;;;;5047740;28;20055;-73
2023/04/21 03:00:06;;;;;;;71.85;39.83;;;;;;;;;;5059072;28;20044;-74
2023/04/21 03:02:31;;;;;;;65.18;38.33;;;;;;;;;;5042171;28;20048;-74
2023/04/21 03:04:59;;;;;;;64.13;37.45;;;;;;;;;;5060576;28;22350;-72
2023/04/21 03:07:24;;;;;;;64.85;38.08;;;;;;;;;;5060107;28;20027;-73
2023/04/21 03:09:51;;;;;;;69.95;36.50;;;;;;;;;;5042900;28;20146;-74
2023/04/21 03:12:17;;;;;;;70.05;38.42;;;;;;;;;;5060174;28;20500;-73
2023/04/21 03:14:42;;;;;;;67.05;36.83;;;;;;;;;;5061015;28;20292;-73
2023/04/21 03:17:07;;;;;;;66.10;37.40;;;;;;;;;;5047326;28;20102;-73
2023/04/21 03:19:32;;;;;;;69.70;37.63;;;;;;;;;;5057146;28;20097;-73
2023/04/21 03:21:58;;;;;;;72.82;38.72;;;;;;;;;;5057675;28;20036;-74
2023/04/21 03:24:23;;;;;;;73.28;38.80;;;;;;;;;;5048395;28;20044;-74
2023/04/21 03:26:48;;;;;;;69.18;37.03;;;;;;;;;;5025814;28;20493;-73
2023/04/21 03:29:13;;;;;;;70.07;37.50;;;;;;;;;;5005802;28;20032;-74
2023/04/21 03:31:39;;;;;;;76.47;38.10;;;;;;;;;;5003721;28;20227;-75
2023/04/21 03:34:04;;;;;;;68.18;36.63;;;;;;;;;;5027668;28;20047;-73
2023/04/21 03:36:30;;;;;;;68.57;37.38;;;;;;;;;;5038263;28;20033;-73
2023/04/21 03:38:57;;;;;;;65.50;36.28;;;;;;;;;;5039008;28;20043;-74
2023/04/21 03:41:22;;;;;;;65.93;36.08;;;;;;;;;;5022345;28;20655;-72
2023/04/21 03:43:51;;;;;;;67.60;35.58;;;;;;;;;;5040824;28;20036;-72
2023/04/21 03:46:19;;;;;;;65.78;37.10;;;;;;;;;;5040438;28;20043;-72
2023/04/21 03:48:47;;;;;;;72.65;35.92;;;;;;;;;;5021451;28;20047;-72
2023/04/21 03:51:15;;;;;;;63.30;33.08;;;;;;;;;;5039158;28;20037;-72
2023/04/21 03:53:40;;;;;;;63.75;34.20;;;;;;;;;;5038711;28;20109;-71
2023/04/21 03:56:05;;;;;;;65.90;34.45;;;;;;;;;;5039057;28;20695;-72
2023/04/21 03:58:31;;;;;;;63.53;33.97;;;;;;;;;;5023533;28;20115;-71
2023/04/21 04:00:56;;;;;;;60.92;33.22;;;;;;;;;;5038674;28;22193;-72
2023/04/21 04:03:23;;;;;;;60.20;32.83;;;;;;;;;;5037417;28;20028;-72
2023/04/21 04:05:51;;;;;;;54.30;31.10;;;;;;;;;;5037607;28;20133;-72
2023/04/21 04:08:16;;;;;;;55.35;31.13;;;;;;;;;;5039229;28;20631;-73
2023/04/21 04:10:41;;;;;;;58.28;30.77;;;;;;;;;;5038362;28;20039;-72
2023/04/21 04:13:07;;;;;;;55.92;30.92;;;;;;;;;;5039164;28;20436;-72
2023/04/21 04:15:32;;;;;;;55.47;30.58;;;;;;;;;;5002104;28;20041;-71
2023/04/21 04:17:57;;;;;;;57.00;31.50;;;;;;;;;;5040935;28;20024;-72
2023/04/21 04:20:23;;;;;;;59.00;30.90;;;;;;;;;;5020429;28;20036;-72
2023/04/21 04:22:50;;;;;;;58.28;31.77;;;;;;;;;;5022353;28;20039;-71
2023/04/21 04:25:16;;;;;;;53.90;30.42;;;;;;;;;;5032306;28;20048;-71
2023/04/21 04:27:43;;;;;;;58.08;30.52;;;;;;;;;;5033017;28;20036;-71
2023/04/21 04:30:09;;;;;;;54.95;30.25;;;;;;;;;;5038165;28;22359;-72
2023/04/21 04:32:38;;;;;;;56.88;30.98;;;;;;;;;;5039169;28;20037;-72
2023/04/21 04:35:04;;;;;;;53.58;29.92;;;;;;;;;;5036044;28;20052;-72
2023/04/21 04:37:30;;;;;;;57.63;30.55;;;;;;;;;;5038326;28;20032;-72
2023/04/21 04:39:58;;;;;;;52.30;29.65;;;;;;;;;;5035077;28;20040;-72
2023/04/21 04:42:26;;;;;;;58.60;30.13;;;;;;;;;;5037703;28;20041;-73
2023/04/21 04:44:53;;;;;;;54.13;28.85;;;;;;;;;;5032679;28;20086;-72
2023/04/21 04:47:19;;;;;;;55.40;29.75;;;;;;;;;;5037532;28;20108;-72
2023/04/21 04:49:44;;;;;;;59.53;31.50;;;;;;;;;;5039389;28;20033;-72
2023/04/21 04:52:09;;;;;;;58.53;31.95;;;;;;;;;;5038938;28;20063;-72
2023/04/21 04:54:35;;;;;;;53.78;30.08;;;;;;;;;;5036943;28;20143;-72
2023/04/21 04:57:01;;;;;;;50.90;29.38;;;;;;;;;;5036360;28;20062;-71
2023/04/21 04:59:26;;;;;;;49.78;28.55;;;;;;;;;;5039538;28;20041;-71
2023/04/21 05:01:52;;;;;;;49.72;28.15;;;;;;;;;;5034191;28;20063;-72
2023/04/21 05:04:17;;;;;;;50.53;28.63;;;;;;;;;;5033609;28;20043;-72
2023/04/21 05:06:42;;;;;;;53.35;30.33;;;;;;;;;;5035549;28;20401;-71
2023/04/21 05:09:11;;;;;;;48.30;28.92;;;;;;;;;;5039038;28;20180;-72
2023/04/21 05:11:36;;;;;;;51.80;30.15;;;;;;;;;;5037357;28;20040;-73
2023/04/21 05:14:04;;;;;;;55.30;29.63;;;;;;;;;;5041653;28;21048;-73
2023/04/21 05:16:29;;;;;;;53.13;29.50;;;;;;;;;;5040588;28;20049;-73
2023/04/21 05:18:54;;;;;;;55.72;31.02;;;;;;;;;;5038678;28;20041;-72
2023/04/21 05:21:26;;;;;;;62.92;33.38;;;;;;;;;;5034724;28;20056;-71
2023/04/21 05:23:51;;;;;;;60.27;34.80;;;;;;;;;;5042913;28;20161;-71
2023/04/21 05:26:18;;;;;;;69.45;36.90;;;;;;;;;;5059582;28;20912;-71
2023/04/21 05:28:46;;;;;;;71.40;37.90;;;;;;;;;;5061925;28;20056;-71
2023/04/21 05:31:11;;;;;;;70.80;39.13;;;;;;;;;;5057373;28;20115;-71
2023/04/21 05:33:37;;;;;;;68.82;38.70;;;;;;;;;;5056675;28;20047;-71
2023/04/21 05:36:08;;;;;;;70.38;38.50;;;;;;;;;;5043095;28;20100;-71
2023/04/21 05:38:33;;;;;;;72.95;40.83;;;;;;;;;;5039572;28;20028;-72
2023/04/21 05:41:01;;;;;;;77.50;40.90;;;;;;;;;;5044073;28;20039;-72
2023/04/21 05:43:29;;;;;;;73.50;40.88;;;;;;;;;;5061126;28;20040;-72
2023/04/21 05:45:54;;;;;;;78.78;42.92;;;;;;;;;;5058764;28;20523;-72
2023/04/21 05:48:19;;;;;;;74.50;43.20;;;;;;;;;;5043610;28;20745;-72
2023/04/21 05:50:47;;;;;;;80.65;46.05;;;;;;;;;;5060682;28;20038;-70
2023/04/21 05:53:12;;;;;;;78.95;46.05;;;;;;;;;;5040539;28;20043;-72
2023/04/21 05:55:40;;;;;;;86.38;50.15;;;;;;;;;;5041099;28;21623;-71
2023/04/21 05:58:08;;;;;;;87.05;50.13;;;;;;;;;;5043446;28;20035;-72
2023/04/21 06:00:33;;;;;;;85.93;50.72;;;;;;;;;;5038144;28;20055;-73
2023/04/21 06:02:59;;;;;;;90.07;52.58;;;;;;;;;;5041301;28;20032;-73
2023/04/21 06:05:24;;;;;;;98.95;54.33;;;;;;;;;;5040397;28;20032;-73
2023/04/21 06:07:49;;;;;;;92.85;53.65;;;;;;;;;;5061115;28;20032;-73
2023/04/21 06:10:15;;;;;;;92.00;52.45;;;;;;;;;;5061691;28;20118;-72
2023/04/21 06:12:41;;;;;;;86.75;50.08;;;;;;;;;;5044864;28;20036;-71
2023/04/21 06:15:06;;;;;;;83.68;49.78;;;;;;;;;;5043197;28;20201;-70
2023/04/21 06:17:31;;;;;;;85.85;51.25;;;;;;;;;;5059953;28;20051;-71
2023/04/21 06:19:59;;;;;;;84.78;50.13;;;;;;;;;;5059728;28;20047;-69
2023/04/21 06:22:28;;;;;;;85.72;50.90;;;;;;;;;;5060645;28;20040;-72
2023/04/21 06:24:53;;;;;;;81.97;50.03;;;;;;;;;;5057647;28;20052;-72
2023/04/21 06:27:18;;;;;;;83.60;49.65;;;;;;;;;;5059228;28;20374;-71
2023/04/21 06:29:44;;;;;;;78.15;48.47;;;;;;;;;;5043782;28;20036;-71
2023/04/21 06:32:09;;;;;;;79.53;49.40;;;;;;;;;;5056372;28;20036;-69
2023/04/21 06:34:37;;;;;;;82.28;50.42;;;;;;;;;;5058185;28;20054;-70
2023/04/21 06:37:03;;;;;;;81.40;49.33;;;;;;;;;;5026854;28;20556;-69
2023/04/21 06:39:28;;;;;;;76.88;48.55;;;;;;;;;;5050659;28;20063;-70
2023/04/21 06:41:54;;;;;;;77.90;49.53;;;;;;;;;;5047410;28;20040;-69
2023/04/21 06:44:19;;;;;;;77.97;51.20;;;;;;;;;;5062648;28;20140;-69
2023/04/21 06:46:46;;;;;;;79.35;50.30;;;;;;;;;;5060325;28;20040;-70
2023/04/21 06:49:11;;;;;;;85.18;50.45;;;;;;;;;;5060977;28;20056;-69
2023/04/21 06:51:36;;;;;;;82.35;51.65;;;;;;;;;;5060176;28;20614;-73
2023/04/21 06:54:02;;;;;;;78.47;50.42;;;;;;;;;;5058218;28;20051;-71
2023/04/21 06:56:28;;;;;;;79.35;51.08;;;;;;;;;;5061079;28;20528;-70
2023/04/21 06:58:53;;;;;;;76.85;49.95;;;;;;;;;;5063736;28;20040;-73
2023/04/21 07:01:18;;;;;;;78.68;49.78;;;;;;;;;;5041354;28;20036;-72
2023/04/21 07:03:43;;;;;;;75.40;48.80;;;;;;;;;;5063324;28;20100;-71
2023/04/21 07:06:09;;;;;;;77.75;48.97;;;;;;;;;;5061476;28;20042;-72
2023/04/21 07:08:35;;;;;;;74.90;47.70;;;;;;;;;;5043622;28;20036;-73
2023/04/21 07:11:00;;;;;;;72.75;48.08;;;;;;;;;;5035911;28;20503;-73
2023/04/21 07:13:25;;;;;;;73.78;48.28;;;;;;;;;;5043550;28;20050;-73
2023/04/21 07:15:51;;;;;;;70.55;47.05;;;;;;;;;;5055978;28;20135;-73
2023/04/21 07:18:18;;;;;;;66.13;45.90;;;;;;;;;;5045257;28;20084;-72
2023/04/21 07:20:44;;;;;;;65.65;46.25;;;;;;;;;;5061853;28;20036;-73
2023/04/21 07:23:09;;;;;;;65.60;43.90;;;;;;;;;;5061447;28;20051;-73
2023/04/21 07:25:35;;;;;;;60.10;44.35;;;;;;;;;;5061381;28;20040;-71
2023/04/21 07:28:02;;;;;;;61.17;42.25;;;;;;;;;;5058408;28;20067;-73
2023/04/21 07:30:29;;;;;;;63.35;43.67;;;;;;;;;;5063666;28;20028;-72
2023/04/21 07:32:57;;;;;;;61.55;42.38;;;;;;;;;;5060311;28;20143;-70
2023/04/21 07:35:22;;;;;;;61.03;42.55;;;;;;;;;;5063267;28;20507;-73
2023/04/21 07:37:48;;;;;;;63.78;42.70;;;;;;;;;;5062461;28;20040;-73
2023/04/21 07:40:15;;;;;;;56.63;40.20;;;;;;;;;;5045307;28;20042;-72
2023/04/21 07:42:40;;;;;;;56.55;40.30;;;;;;;;;;5061750;28;20036;-70
2023/04/21 07:45:06;;;;;;;60.15;40.63;;;;;;;;;;5048198;28;20117;-73
2023/04/21 07:47:34;;;;;;;54.92;39.38;;;;;;;;;;5058856;28;20047;-72
2023/04/21 07:50:00;;;;;;;55.08;38.03;;;;;;;;;;5038443;28;20036;-71
2023/04/21 07:52:27;;;;;;;57.25;39.60;;;;;;;;;;5059827;28;20107;-70
2023/04/21 07:54:53;;;;;;;53.75;37.55;;;;;;;;;;5061889;28;20040;-71
2023/04/21 07:57:18;;;;;;;51.38;37.53;;;;;;;;;;5063369;28;20068;-72
2023/04/21 07:59:43;;;;;;;50.30;36.90;;;;;;;;;;5063514;28;20040;-70
2023/04/21 08:02:09;;;;;;;51.08;36.22;;;;;;;;;;5060176;28;20120;-72
2023/04/21 08:04:34;;;;;;;53.47;37.08;;;;;;;;;;5057353;28;20051;-70
2023/04/21 08:07:00;;;;;;;49.20;36.80;;;;;;;;;;5040206;28;20040;-68
2023/04/21 08:09:25;;;;;;;48.55;36.55;;;;;;;;;;5043917;28;20032;-70
2023/04/21 08:11:51;;;;;;;45.35;34.72;;;;;;;;;;5056966;28;20032;-69
2023/04/21 08:14:16;;;;;;;50.22;34.38;;;;;;;;;;5039055;28;20050;-71
2023/04/21 08:16:41;;;;;;;44.63;34.38;;;;;;;;;;5057442;28;20923;-70
2023/04/21 08:19:07;;;;;;;43.53;32.55;;;;;;;;;;5056273;28;20032;-70
2023/04/21 08:21:33;;;;;;;40.55;33.10;;;;;;;;;;5035604;28;20039;-70
2023/04/21 08:23:58;;;;;;;42.60;30.88;;;;;;;;;;5037000;28;20060;-71
2023/04/21 08:26:24;;;;;;;38.38;31.65;;;;;;;;;;5037682;28;20097;-71
2023/04/21 08:28:50;;;;;;;38.67;31.73;;;;;;;;;;5056314;28;20041;-70
2023/04/21 08:31:16;;;;;;;37.70;30.60;;;;;;;;;;5036615;28;20505;-73
2023/04/21 08:33:41;;;;;;;37.22;29.45;;;;;;;;;;5056097;28;20039;-71
2023/04/21 08:36:07;;;;;;;38.05;29.67;;;;;;;;;;5055519;28;20882;-72
2023/04/21 08:38:34;;;;;;;39.97;30.15;;;;;;;;;;5057853;28;20037;-71
2023/04/21 08:40:59;;;;;;;39.15;28.63;;;;;;;;;;5026538;28;21046;-72
2023/04/21 08:43:25;;;;;;;41.35;30.17;;;;;;;;;;5055751;28;20028;-73
2023/04/21 08:45:53;;;;;;;38.47;30.25;;;;;;;;;;5053345;28;20032;-71
2023/04/21 08:48:20;;;;;;;40.78;29.85;;;;;;;;;;5054423;28;20081;-70
2023/04/21 08:50:47;;;;;;;35.70;28.40;;;;;;;;;;5052690;28;20036;-73
2023/04/21 08:53:12;;;;;;;38.58;29.02;;;;;;;;;;5052891;28;20547;-72
2023/04/21 08:55:38;;;;;;;38.67;29.77;;;;;;;;;;5055697;28;20040;-72
2023/04/21 08:58:05;;;;;;;38.72;30.17;;;;;;;;;;5034275;28;20047;-69
2023/04/21 09:00:30;;;;;;;38.95;29.90;;;;;;;;;;5057916;28;20519;-73
2023/04/21 09:02:56;;;;;;;37.42;28.77;;;;;;;;;;5036679;28;20029;-73
2023/04/21 09:05:23;;;;;;;35.80;27.52;;;;;;;;;;5038823;28;20078;-73
2023/04/21 09:07:49;;;;;;;37.42;28.60;;;;;;;;;;5050167;28;21128;-72
2023/04/21 09:10:20;;;;;;;33.63;28.58;;;;;;;;;;5054825;28;20059;-71
2023/04/21 09:12:49;;;;;;;36.50;28.35;;;;;;;;;;5034243;28;20382;-75
2023/04/21 09:15:14;;;;;;;32.25;26.75;;;;;;;;;;5059153;28;20050;-73
2023/04/21 09:17:42;;;;;;;35.50;26.13;;;;;;;;;;5043095;28;20032;-73
2023/04/21 09:20:18;;;;;;;34.90;26.90;;;;;;;;;;5040688;28;20054;-73
2023/04/21 09:22:43;;;;;;;34.03;25.77;;;;;;;;;;5039946;28;20521;-72
2023/04/21 09:25:14;;;;;;;33.00;25.23;;;;;;;;;;5056066;28;20035;-70
2023/04/21 09:27:40;;;;;;;28.13;23.77;;;;;;;;;;5059443;28;20128;-74
2023/04/21 09:30:06;;;;;;;32.83;25.77;;;;;;;;;;5056933;28;20100;-69
2023/04/21 09:32:40;;;;;;;30.67;24.73;;;;;;;;;;5040070;28;20799;-72
2023/04/21 09:35:09;;;;;;;30.80;24.60;;;;;;;;;;5060724;28;20173;-73
2023/04/21 09:37:35;;;;;;;30.33;24.35;;;;;;;;;;5059838;28;20058;-75
2023/04/21 09:40:00;;;;;;;31.20;23.92;;;;;;;;;;5056143;28;20127;-74
2023/04/21 09:42:29;;;;;;;31.08;24.10;;;;;;;;;;5038230;28;20165;-71
2023/04/21 09:44:55;;;;;;;28.15;23.65;;;;;;;;;;5042709;28;20024;-72
2023/04/21 09:47:22;;;;;;;29.48;23.70;;;;;;;;;;5057811;28;20036;-69
2023/04/21 09:49:51;;;;;;;30.13;23.88;;;;;;;;;;5060487;28;20032;-69
2023/04/21 09:52:19;;;;;;;28.52;23.70;;;;;;;;;;5044295;28;20043;-74
2023/04/21 09:54:48;;;;;;;30.80;23.38;;;;;;;;;;5063587;28;20036;-74
2023/04/21 09:57:20;;;;;;;30.52;24.25;;;;;;;;;;5042917;28;20034;-74
2023/04/21 09:59:46;;;;;;;;;;;;;;;;;;5063870;28;20040;-73
2023/04/21 10:02:12;;;;;;;29.23;23.67;;;;;;;;;;5062883;28;19974;-74
2023/04/21 10:04:39;;;;;;;27.23;23.05;;;;;;;;;;5061331;28;20150;-72
2023/04/21 10:07:05;;;;;;;28.23;22.73;;;;;;;;;;5038044;28;20127;-72
2023/04/21 10:09:35;;;;;;;27.85;22.58;;;;;;;;;;5061569;28;20050;-72
2023/04/21 10:12:02;;;;;;;24.90;22.02;;;;;;;;;;5040331;28;20040;-75
2023/04/21 10:14:27;;;;;;;27.75;22.73;;;;;;;;;;5041795;28;20481;-74
2023/04/21 10:16:56;;;;;;;29.52;23.02;;;;;;;;;;5044868;28;20028;-71
2023/04/21 10:19:26;;;;;;;26.20;22.65;;;;;;;;;;5038707;28;20031;-71
2023/04/21 10:21:53;;;;;;;;;;;;;;;;;;5058816;28;20115;-73
2023/04/21 10:24:18;;;;;;;25.95;21.48;;;;;;;;;;5061133;28;20575;-73
2023/04/21 10:26:44;;;;;;;25.70;22.42;;;;;;;;;;5045715;28;20333;-71
2023/04/21 10:29:10;;;;;;;26.67;22.33;;;;;;;;;;5048387;28;20032;-73
2023/04/21 10:31:36;;;;;;;29.73;22.23;;;;;;;;;;5059476;28;20143;-72
2023/04/21 10:34:04;;;;;;;26.77;22.92;;;;;;;;;;5063014;28;20064;-75
2023/04/21 10:36:29;;;;;;;26.70;21.92;;;;;;;;;;5037635;28;20170;-71
2023/04/21 10:38:58;;;;;;;23.92;20.08;;;;;;;;;;5063639;28;20032;-75
2023/04/21 10:41:30;;;;;;;24.00;21.25;;;;;;;;;;5060309;28;20036;-72
2023/04/21 10:44:11;;;;;;;25.88;22.00;;;;;;;;;;5053678;28;20040;-72
2023/04/21 10:46:40;;;;;;;28.33;22.98;;;;;;;;;;5057549;28;20038;-71
2023/04/21 10:49:08;;;;;;;28.48;22.17;;;;;;;;;;5057577;28;20818;-74
2023/04/21 10:51:54;;;;;;;27.42;21.23;;;;;;;;;;5041140;28;20087;-72
2023/04/21 10:54:24;;;;;;;25.67;21.50;;;;;;;;;;5056006;28;20045;-73
2023/04/21 10:56:50;;;;;;;24.30;21.25;;;;;;;;;;5036467;28;20509;-71
2023/04/21 10:59:16;;;;;;;26.15;21.83;;;;;;;;;;5041307;28;20032;-71
2023/04/21 11:01:42;;;;;;;26.50;21.67;;;;;;;;;;5058200;28;20647;-71
2023/04/21 11:04:12;;;;;;;25.17;21.00;;;;;;;;;;5041106;28;20043;-73
2023/04/21 11:06:38;;;;;;;26.48;21.75;;;;;;;;;;5058650;28;20032;-72
2023/04/21 11:09:03;;;;;;;27.52;22.30;;;;;;;;;;5059767;28;20024;-72
2023/04/21 11:11:28;;;;;;;27.45;22.52;;;;;;;;;;5059674;28;20172;-72
2023/04/21 11:13:53;;;;;;;30.52;22.20;;;;;;;;;;5036410;28;20055;-71
2023/04/21 11:16:19;;;;;;;30.02;23.65;;;;;;;;;;5057561;28;20326;-70
2023/04/21 11:18:44;;;;;;;28.63;22.45;;;;;;;;;;5036234;28;20035;-72
2023/04/21 11:21:20;;;;;;;27.92;23.65;;;;;;;;;;5058366;28;20032;-70
2023/04/21 11:23:54;;;;;;;26.50;22.65;;;;;;;;;;5057664;28;20066;-71
2023/04/21 11:26:29;;;;;;;31.88;23.88;;;;;;;;;;5056205;28;20089;-71
2023/04/21 11:28:55;;;;;;;27.25;23.02;;;;;;;;;;5056801;28;20059;-74
2023/04/21 11:31:22;;;;;;;27.77;23.33;;;;;;;;;;5041791;28;20261;-73
2023/04/21 11:33:48;;;;;;;30.08;23.52;;;;;;;;;;5055961;28;20032;-73
2023/04/21 11:36:14;;;;;;;28.92;23.38;;;;;;;;;;5042667;28;20032;-68
2023/04/21 11:38:40;;;;;;;30.45;23.80;;;;;;;;;;5034569;28;20162;-71
2023/04/21 11:41:05;;;;;;;28.08;22.85;;;;;;;;;;5038732;28;20108;-70
2023/04/21 11:43:30;;;;;;;28.13;23.40;;;;;;;;;;5040578;28;20842;-70
2023/04/21 11:46:09;;;;;;;29.25;23.33;;;;;;;;;;5040545;28;21844;-72
2023/04/21 11:48:35;;;;;;;30.80;22.90;;;;;;;;;;5057695;28;20036;-71
2023/04/21 11:51:03;;;;;;;27.70;22.48;;;;;;;;;;5060207;28;20032;-72
2023/04/21 11:53:28;;;;;;;29.80;23.27;;;;;;;;;;5058723;28;20027;-72
2023/04/21 11:55:55;;;;;;;30.60;23.40;;;;;;;;;;5057513;28;20155;-71
2023/04/21 11:58:20;;;;;;;31.23;23.42;;;;;;;;;;5056217;28;20032;-73
2023/04/21 12:00:46;;;;;;;28.10;23.55;;;;;;;;;;5055987;28;20081;-73
2023/04/21 12:03:12;;;;;;;30.38;23.88;;;;;;;;;;5054910;28;20032;-72
2023/04/21 12:05:37;;;;;;;31.38;24.38;;;;;;;;;;5057279;28;20040;-73
2023/04/21 12:08:05;;;;;;;28.60;23.50;;;;;;;;;;5035256;28;20065;-71
2023/04/21 12:10:30;;;;;;;32.72;23.15;;;;;;;;;;5056276;28;21874;-70
2023/04/21 12:12:56;;;;;;;32.20;24.67;;;;;;;;;;5037059;28;20059;-70
2023/04/21 12:15:24;;;;;;;28.85;23.80;;;;;;;;;;5057366;28;20169;-70
2023/04/21 12:17:51;;;;;;;29.52;23.77;;;;;;;;;;5058147;28;20047;-69
2023/04/21 12:20:17;;;;;;;32.65;23.80;;;;;;;;;;5052961;28;20025;-69
2023/04/21 12:22:42;;;;;;;29.88;23.55;;;;;;;;;;5034565;28;20939;-70
2023/04/21 12:25:08;;;;;;;29.55;24.42;;;;;;;;;;5035984;28;20040;-71
2023/04/21 12:27:33;;;;;;;27.30;23.23;;;;;;;;;;5038077;28;20038;-72
2023/04/21 12:29:59;;;;;;;29.35;23.27;;;;;;;;;;5057479;28;20047;-72
2023/04/21 12:32:27;;;;;;;28.48;23.05;;;;;;;;;;5054927;28;22657;-71
2023/04/21 12:34:55;;;;;;;30.17;22.30;;;;;;;;;;5057157;28;20890;-74
2023/04/21 12:37:20;;;;;;;29.58;23.23;;;;;;;;;;5037329;28;20032;-70
2023/04/21 12:39:45;;;;;;;28.10;22.23;;;;;;;;;;5051705;28;20208;-71
2023/04/21 12:42:11;;;;;;;27.02;21.00;;;;;;;;;;5055397;28;20032;-72
2023/04/21 12:44:36;;;;;;;28.42;21.20;;;;;;;;;;5053019;28;20036;-70
2023/04/21 12:47:01;;;;;;;29.20;21.50;;;;;;;;;;5036487;28;20526;-70
2023/04/21 12:49:27;;;;;;;28.15;22.30;;;;;;;;;;5052585;28;20032;-70
2023/04/21 12:51:52;;;;;;;28.38;22.20;;;;;;;;;;5055228;28;20036;-70
2023/04/21 12:54:17;;;;;;;28.00;21.48;;;;;;;;;;5054318;28;20575;-71
2023/04/21 12:56:45;;;;;;;28.05;21.73;;;;;;;;;;5056511;28;20123;-71
2023/04/21 12:59:10;;;;;;;24.23;20.40;;;;;;;;;;5053217;28;20393;-76
2023/04/21 13:01:38;;;;;;;24.33;19.52;;;;;;;;;;5050590;28;20040;-72
2023/04/21 13:04:04;;;;;;;24.25;19.88;;;;;;;;;;5048604;28;20152;-72
2023/04/21 13:06:30;;;;;;;24.33;19.25;;;;;;;;;;5044660;28;20126;-73
2023/04/21 13:08:55;;;;;;;23.20;19.85;;;;;;;;;;5039929;28;20153;-67
2023/04/21 13:11:20;;;;;;;25.58;20.13;;;;;;;;;;5030439;28;20043;-70
2023/04/21 13:13:46;;;;;;;24.00;20.33;;;;;;;;;;5045146;28;20043;-73
2023/04/21 13:16:11;;;;;;;24.45;19.52;;;;;;;;;;5005222;28;20137;-70
2023/04/21 13:18:37;;;;;;;24.08;19.98;;;;;;;;;;5043416;28;20090;-73
2023/04/21 13:21:05;;;;;;;23.45;20.40;;;;;;;;;;5020277;28;20028;-73
2023/04/21 13:23:31;;;;;;;26.15;20.50;;;;;;;;;;5023100;28;20501;-69
2023/04/21 13:25:56;;;;;;;26.70;20.25;;;;;;;;;;5020785;28;20751;-66
2023/04/21 13:28:22;;;;;;;26.33;20.38;;;;;;;;;;5044864;28;20428;-69
2023/04/21 13:30:47;;;;;;;26.05;20.95;;;;;;;;;;5044024;28;20129;-72
2023/04/21 13:33:13;;;;;;;26.88;20.35;;;;;;;;;;5040773;28;20747;-73
2023/04/21 13:35:40;;;;;;;23.88;19.52;;;;;;;;;;5041302;28;20911;-72
2023/04/21 13:38:05;;;;;;;24.10;19.67;;;;;;;;;;5039857;28;20036;-71
2023/04/21 13:40:31;;;;;;;26.02;19.52;;;;;;;;;;5021232;28;20156;-72
2023/04/21 13:42:58;;;;;;;23.80;19.25;;;;;;;;;;5025152;28;20570;-72
2023/04/21 13:45:23;;;;;;;26.83;20.13;;;;;;;;;;5021233;28;20060;-74
2023/04/21 13:47:51;;;;;;;25.50;19.70;;;;;;;;;;4990497;28;20491;-70
2023/04/21 13:50:17;;;;;;;26.65;19.77;;;;;;;;;;5008026;28;20043;-70
2023/04/21 13:52:43;;;;;;;24.20;19.85;;;;;;;;;;5032262;28;20032;-72
2023/04/21 13:55:10;;;;;;;25.85;19.63;;;;;;;;;;5048075;28;20066;-71
2023/04/21 13:57:37;;;;;;;24.83;19.70;;;;;;;;;;5011277;28;20546;-68
2023/04/21 14:00:04;;;;;;;27.17;21.08;;;;;;;;;;5046644;28;20754;-70
2023/04/21 14:02:30;;;;;;;26.73;21.10;;;;;;;;;;5051029;28;20388;-69
2023/04/21 14:04:56;;;;;;;27.38;20.88;;;;;;;;;;5054820;28;20078;-71
2023/04/21 14:07:23;;;;;;;28.02;21.33;;;;;;;;;;5051198;28;20525;-72
2023/04/21 14:09:50;;;;;;;28.08;21.98;;;;;;;;;;5021586;28;20036;-69
2023/04/21 14:12:15;;;;;;;26.00;20.92;;;;;;;;;;5034658;28;20048;-69
2023/04/21 14:14:40;;;;;;;26.98;20.73;;;;;;;;;;5049389;28;20524;-70